sensor_id;sensor_type;location;lat;lon;timestamp;pressure;altitude;pressure_sealevel;temperature;humidity
9187;BME280;7273;48.902;9.410;2022-12-07T00:01:30;98097.06;;;4.28;nan
9187;BME280;7273;48.902;9.410;2022-12-07T00:03:58;98088.22;;;4.28;nan
9187;BME280;7273;48.902;9.410;2022-12-07T00:06:33;98088.22;;;4.28;nan
9187;BME280;7273;48.902;9.410;2022-12-07T00:09:00;98087.97;;;4.29;nan
9187;BME280;7273;48.902;9.410;2022-12-07T00:11:25;98085.28;;;4.29;nan
9187;BME280;7273;48.902;9.410;2022-12-07T00:13:53;98085.53;;;4.28;nan
9187;BME280;7273;48.902;9.410;2022-12-07T00:16:21;98084.16;;;4.25;nan
9187;BME280;7273;48.902;9.410;2022-12-07T00:18:47;98079.59;;;4.26;nan
9187;BME280;7273;48.902;9.410;2022-12-07T00:21:17;98083.91;;;4.27;nan
9187;BME280;7273;48.902;9.410;2022-12-07T00:23:44;98083.56;;;4.23;nan
9187;BME280;7273;48.902;9.410;2022-12-07T00:26:20;98090.88;;;4.28;nan
9187;BME280;7273;48.902;9.410;2022-12-07T00:28:52;98085.28;;;4.29;nan
9187;BME280;7273;48.902;9.410;2022-12-07T00:31:20;98094.03;;;4.25;nan
9187;BME280;7273;48.902;9.410;2022-12-07T00:33:46;98083.34;;;4.25;nan
9187;BME280;7273;48.902;9.410;2022-12-07T00:36:14;98089.75;;;4.24;nan
9187;BME280;7273;48.902;9.410;2022-12-07T00:38:40;98082.19;;;4.21;nan
9187;BME280;7273;48.902;9.410;2022-12-07T00:41:11;98076.25;;;4.19;nan
9187;BME280;7273;48.902;9.410;2022-12-07T00:43:38;98072.75;;;4.18;nan
9187;BME280;7273;48.902;9.410;2022-12-07T00:46:04;98077.28;;;4.18;nan
9187;BME280;7273;48.902;9.410;2022-12-07T00:48:30;98073.34;;;4.20;nan
9187;BME280;7273;48.902;9.410;2022-12-07T00:50:55;98077.06;;;4.19;nan
9187;BME280;7273;48.902;9.410;2022-12-07T00:53:21;98080.78;;;4.18;nan
9187;BME280;7273;48.902;9.410;2022-12-07T00:55:47;98080.78;;;4.18;nan
9187;BME280;7273;48.902;9.410;2022-12-07T00:58:12;98083.69;;;4.17;nan
9187;BME280;7273;48.902;9.410;2022-12-07T01:00:40;98086.97;;;4.19;nan
9187;BME280;7273;48.902;9.410;2022-12-07T01:03:07;98089.06;;;4.17;nan
9187;BME280;7273;48.902;9.410;2022-12-07T01:05:33;98086.38;;;4.17;nan
9187;BME280;7273;48.902;9.410;2022-12-07T01:07:59;98095.34;;;4.10;nan
9187;BME280;7273;48.902;9.410;2022-12-07T01:10:25;98086.75;;;4.08;nan
9187;BME280;7273;48.902;9.410;2022-12-07T01:12:51;98085.00;;;4.14;nan
9187;BME280;7273;48.902;9.410;2022-12-07T01:15:16;98095.25;;;4.05;nan
9187;BME280;7273;48.902;9.410;2022-12-07T01:17:41;98093.03;;;4.02;nan
9187;BME280;7273;48.902;9.410;2022-12-07T01:20:07;98091.38;;;4.01;nan
9187;BME280;7273;48.902;9.410;2022-12-07T01:22:37;98092.56;;;4.05;nan
9187;BME280;7273;48.902;9.410;2022-12-07T01:25:04;98086.28;;;4.00;nan
9187;BME280;7273;48.902;9.410;2022-12-07T01:27:30;98089.78;;;4.00;nan
9187;BME280;7273;48.902;9.410;2022-12-07T01:29:55;98087.81;;;3.96;nan
9187;BME280;7273;48.902;9.410;2022-12-07T01:32:21;98093.47;;;3.99;nan
9187;BME280;7273;48.902;9.410;2022-12-07T01:34:48;98089.06;;;3.93;nan
9187;BME280;7273;48.902;9.410;2022-12-07T01:37:13;98091.50;;;3.95;nan
9187;BME280;7273;48.902;9.410;2022-12-07T01:39:39;98086.16;;;3.95;nan
9187;BME280;7273;48.902;9.410;2022-12-07T01:42:04;98095.59;;;3.97;nan
9187;BME280;7273;48.902;9.410;2022-12-07T01:44:30;98097.22;;;3.98;nan
9187;BME280;7273;48.902;9.410;2022-12-07T01:46:59;98099.53;;;3.95;nan
9187;BME280;7273;48.902;9.410;2022-12-07T01:49:33;98097.22;;;3.98;nan
9187;BME280;7273;48.902;9.410;2022-12-07T01:54:47;98103.84;;;3.96;nan
9187;BME280;7273;48.902;9.410;2022-12-07T01:57:15;98104.06;;;3.94;nan
9187;BME280;7273;48.902;9.410;2022-12-07T01:59:43;98108.84;;;3.92;nan
9187;BME280;7273;48.902;9.410;2022-12-07T02:02:18;98102.69;;;3.92;nan
9187;BME280;7273;48.902;9.410;2022-12-07T02:04:45;98106.66;;;3.89;nan
9187;BME280;7273;48.902;9.410;2022-12-07T02:07:11;98105.00;;;4.00;nan
9187;BME280;7273;48.902;9.410;2022-12-07T02:09:37;98102.91;;;4.02;nan
9187;BME280;7273;48.902;9.410;2022-12-07T02:12:02;98100.00;;;4.03;nan
9187;BME280;7273;48.902;9.410;2022-12-07T02:14:29;98100.00;;;4.03;nan
9187;BME280;7273;48.902;9.410;2022-12-07T02:24:58;98093.38;;;3.94;nan
9187;BME280;7273;48.902;9.410;2022-12-07T02:30:33;98083.13;;;3.91;nan
9187;BME280;7273;48.902;9.410;2022-12-07T02:33:04;98080.81;;;3.83;nan
9187;BME280;7273;48.902;9.410;2022-12-07T02:38:10;98078.25;;;3.88;nan
9187;BME280;7273;48.902;9.410;2022-12-07T02:43:19;98082.56;;;3.89;nan
9187;BME280;7273;48.902;9.410;2022-12-07T02:45:49;98076.53;;;3.94;nan
9187;BME280;7273;48.902;9.410;2022-12-07T02:48:18;98072.78;;;3.83;nan
9187;BME280;7273;48.902;9.410;2022-12-07T02:50:49;98073.63;;;3.84;nan
9187;BME280;7273;48.902;9.410;2022-12-07T02:53:34;98072.78;;;3.83;nan
9187;BME280;7273;48.902;9.410;2022-12-07T03:12:23;98068.72;;;3.92;nan
9187;BME280;7273;48.902;9.410;2022-12-07T03:14:55;98067.66;;;3.93;nan
9187;BME280;7273;48.902;9.410;2022-12-07T03:17:27;98061.19;;;3.89;nan
9187;BME280;7273;48.902;9.410;2022-12-07T03:19:58;98068.63;;;3.87;nan
9187;BME280;7273;48.902;9.410;2022-12-07T03:22:25;98071.16;;;3.82;nan
9187;BME280;7273;48.902;9.410;2022-12-07T03:24:58;98065.94;;;3.76;nan
9187;BME280;7273;48.902;9.410;2022-12-07T03:27:27;98064.75;;;3.83;nan
9187;BME280;7273;48.902;9.410;2022-12-07T03:30:03;98067.44;;;3.83;nan
9187;BME280;7273;48.902;9.410;2022-12-07T03:35:47;98064.88;;;3.77;nan
9187;BME280;7273;48.902;9.410;2022-12-07T03:38:13;98064.41;;;3.80;nan
9187;BME280;7273;48.902;9.410;2022-12-07T03:40:46;98055.59;;;3.79;nan
9187;BME280;7273;48.902;9.410;2022-12-07T03:43:15;98061.75;;;3.80;nan
9187;BME280;7273;48.902;9.410;2022-12-07T03:45:44;98052.56;;;3.76;nan
9187;BME280;7273;48.902;9.410;2022-12-07T03:48:34;98049.66;;;3.77;nan
9187;BME280;7273;48.902;9.410;2022-12-07T03:57:04;98045.03;;;3.61;nan
9187;BME280;7273;48.902;9.410;2022-12-07T03:59:30;98044.09;;;3.56;nan
9187;BME280;7273;48.902;9.410;2022-12-07T04:02:02;98038.50;;;3.46;nan
9187;BME280;7273;48.902;9.410;2022-12-07T04:04:28;98040.50;;;3.39;nan
9187;BME280;7273;48.902;9.410;2022-12-07T04:06:53;98036.53;;;3.41;nan
9187;BME280;7273;48.902;9.410;2022-12-07T04:09:19;98025.94;;;3.46;nan
9187;BME280;7273;48.902;9.410;2022-12-07T04:11:44;98023.28;;;3.46;nan
9187;BME280;7273;48.902;9.410;2022-12-07T04:14:10;98015.72;;;3.20;nan
9187;BME280;7273;48.902;9.410;2022-12-07T04:19:10;98010.59;;;3.19;nan
9187;BME280;7273;48.902;9.410;2022-12-07T04:21:35;98012.22;;;3.20;nan
9187;BME280;7273;48.902;9.410;2022-12-07T04:24:01;98010.13;;;3.22;nan
9187;BME280;7273;48.902;9.410;2022-12-07T04:26:27;98007.59;;;3.27;nan
9187;BME280;7273;48.902;9.410;2022-12-07T04:28:52;98009.66;;;3.25;nan
9187;BME280;7273;48.902;9.410;2022-12-07T04:31:18;98013.28;;;3.30;nan
9187;BME280;7273;48.902;9.410;2022-12-07T04:33:43;98016.75;;;3.31;nan
9187;BME280;7273;48.902;9.410;2022-12-07T04:36:09;98000.72;;;3.31;nan
9187;BME280;7273;48.902;9.410;2022-12-07T04:38:34;98000.94;;;3.29;nan
9187;BME280;7273;48.902;9.410;2022-12-07T04:41:05;98007.94;;;3.30;nan
9187;BME280;7273;48.902;9.410;2022-12-07T04:43:31;98003.28;;;3.37;nan
9187;BME280;7273;48.902;9.410;2022-12-07T04:45:56;97997.94;;;3.37;nan
9187;BME280;7273;48.902;9.410;2022-12-07T04:48:22;97993.53;;;3.31;nan
9187;BME280;7273;48.902;9.410;2022-12-07T04:50:48;98001.19;;;3.39;nan
9187;BME280;7273;48.902;9.410;2022-12-07T04:53:15;98018.06;;;3.40;nan
9187;BME280;7273;48.902;9.410;2022-12-07T04:55:40;98026.19;;;3.45;nan
9187;BME280;7273;48.902;9.410;2022-12-07T04:58:05;98032.78;;;3.42;nan
9187;BME280;7273;48.902;9.410;2022-12-07T05:00:31;98014.56;;;3.39;nan
9187;BME280;7273;48.902;9.410;2022-12-07T05:02:56;98021.31;;;3.42;nan
9187;BME280;7273;48.902;9.410;2022-12-07T05:05:22;98029.09;;;3.43;nan
9187;BME280;7273;48.902;9.410;2022-12-07T05:07:47;98028.28;;;3.43;nan
9187;BME280;7273;48.902;9.410;2022-12-07T05:10:13;98034.91;;;3.40;nan
9187;BME280;7273;48.902;9.410;2022-12-07T05:12:38;98032.56;;;3.32;nan
9187;BME280;7273;48.902;9.410;2022-12-07T05:15:04;98037.09;;;3.32;nan
9187;BME280;7273;48.902;9.410;2022-12-07T05:17:30;98036.63;;;3.35;nan
9187;BME280;7273;48.902;9.410;2022-12-07T05:19:55;98034.66;;;3.30;nan
9187;BME280;7273;48.902;9.410;2022-12-07T05:22:20;98030.56;;;3.28;nan
9187;BME280;7273;48.902;9.410;2022-12-07T05:24:46;98038.69;;;3.21;nan
9187;BME280;7273;48.902;9.410;2022-12-07T05:27:12;98029.19;;;3.14;nan
9187;BME280;7273;48.902;9.410;2022-12-07T05:29:37;98030.91;;;3.08;nan
9187;BME280;7273;48.902;9.410;2022-12-07T05:32:02;98038.91;;;3.08;nan
9187;BME280;7273;48.902;9.410;2022-12-07T05:34:28;98039.97;;;3.07;nan
9187;BME280;7273;48.902;9.410;2022-12-07T05:36:53;98041.00;;;3.06;nan
9187;BME280;7273;48.902;9.410;2022-12-07T05:39:19;98034.03;;;3.05;nan
9187;BME280;7273;48.902;9.410;2022-12-07T05:41:44;98027.44;;;3.08;nan
9187;BME280;7273;48.902;9.410;2022-12-07T05:44:28;98042.03;;;3.05;nan
9187;BME280;7273;48.902;9.410;2022-12-07T05:46:54;98041.69;;;3.02;nan
9187;BME280;7273;48.902;9.410;2022-12-07T05:49:19;98039.72;;;2.97;nan
9187;BME280;7273;48.902;9.410;2022-12-07T05:51:45;98047.63;;;3.04;nan
9187;BME280;7273;48.902;9.410;2022-12-07T05:54:10;98048.66;;;3.03;nan
9187;BME280;7273;48.902;9.410;2022-12-07T05:56:35;98042.63;;;3.07;nan
9187;BME280;7273;48.902;9.410;2022-12-07T05:59:01;98037.28;;;3.07;nan
9187;BME280;7273;48.902;9.410;2022-12-07T06:01:45;98035.09;;;3.04;nan
9187;BME280;7273;48.902;9.410;2022-12-07T06:04:11;98028.22;;;3.08;nan
9187;BME280;7273;48.902;9.410;2022-12-07T06:06:36;98033.47;;;3.15;nan
9187;BME280;7273;48.902;9.410;2022-12-07T06:09:02;98035.44;;;3.19;nan
9187;BME280;7273;48.902;9.410;2022-12-07T06:11:28;98039.53;;;3.22;nan
9187;BME280;7273;48.902;9.410;2022-12-07T06:14:12;98031.03;;;3.25;nan
9187;BME280;7273;48.902;9.410;2022-12-07T06:16:38;98031.25;;;3.12;nan
9187;BME280;7273;48.902;9.410;2022-12-07T06:19:03;98032.09;;;3.24;nan
9187;BME280;7273;48.902;9.410;2022-12-07T06:21:29;98028.94;;;3.15;nan
9187;BME280;7273;48.902;9.410;2022-12-07T06:23:54;98028.97;;;3.27;nan
9187;BME280;7273;48.902;9.410;2022-12-07T06:26:21;98030.44;;;3.23;nan
9187;BME280;7273;48.902;9.410;2022-12-07T06:28:46;98033.94;;;3.23;nan
9187;BME280;7273;48.902;9.410;2022-12-07T06:31:12;98037.81;;;3.27;nan
9187;BME280;7273;48.902;9.410;2022-12-07T06:33:37;98042.31;;;3.27;nan
9187;BME280;7273;48.902;9.410;2022-12-07T06:36:03;98047.78;;;3.20;nan
9187;BME280;7273;48.902;9.410;2022-12-07T06:38:28;98056.13;;;3.12;nan
9187;BME280;7273;48.902;9.410;2022-12-07T06:40:54;98050.31;;;3.15;nan
9187;BME280;7273;48.902;9.410;2022-12-07T06:43:19;98050.44;;;3.20;nan
9187;BME280;7273;48.902;9.410;2022-12-07T06:45:45;98048.78;;;3.19;nan
9187;BME280;7273;48.902;9.410;2022-12-07T06:48:11;98047.06;;;3.25;nan
9187;BME280;7273;48.902;9.410;2022-12-07T06:50:36;98050.09;;;3.28;nan
9187;BME280;7273;48.902;9.410;2022-12-07T06:53:02;98047.06;;;3.25;nan
9187;BME280;7273;48.902;9.410;2022-12-07T06:55:27;98049.75;;;3.25;nan
9187;BME280;7273;48.902;9.410;2022-12-07T06:57:53;98051.81;;;3.23;nan
9187;BME280;7273;48.902;9.410;2022-12-07T07:00:19;98045.09;;;3.20;nan
9187;BME280;7273;48.902;9.410;2022-12-07T07:02:44;98049.16;;;3.23;nan
9187;BME280;7273;48.902;9.410;2022-12-07T07:05:10;98046.25;;;3.24;nan
9187;BME280;7273;48.902;9.410;2022-12-07T07:07:35;98051.59;;;3.24;nan
9187;BME280;7273;48.902;9.410;2022-12-07T07:10:00;98054.84;;;3.26;nan
9187;BME280;7273;48.902;9.410;2022-12-07T07:12:26;98049.97;;;3.23;nan
9187;BME280;7273;48.902;9.410;2022-12-07T07:14:51;98055.09;;;3.25;nan
9187;BME280;7273;48.902;9.410;2022-12-07T07:17:17;98051.59;;;3.24;nan
9187;BME280;7273;48.902;9.410;2022-12-07T07:19:43;98058.47;;;3.20;nan
9187;BME280;7273;48.902;9.410;2022-12-07T07:22:08;98064.25;;;3.17;nan
9187;BME280;7273;48.902;9.410;2022-12-07T07:24:34;98060.63;;;3.12;nan
9187;BME280;7273;48.902;9.410;2022-12-07T07:26:59;98056.25;;;3.17;nan
9187;BME280;7273;48.902;9.410;2022-12-07T07:29:25;98060.91;;;3.22;nan
9187;BME280;7273;48.902;9.410;2022-12-07T07:31:50;98058.91;;;3.17;nan
9187;BME280;7273;48.902;9.410;2022-12-07T07:34:15;98061.69;;;3.11;nan
9187;BME280;7273;48.902;9.410;2022-12-07T07:36:41;98067.03;;;3.11;nan
9187;BME280;7273;48.902;9.410;2022-12-07T07:39:06;98069.00;;;3.15;nan
9187;BME280;7273;48.902;9.410;2022-12-07T07:41:32;98057.03;;;3.18;nan
9187;BME280;7273;48.902;9.410;2022-12-07T07:43:57;98065.16;;;3.11;nan
9187;BME280;7273;48.902;9.410;2022-12-07T07:46:23;98066.47;;;3.20;nan
9187;BME280;7273;48.902;9.410;2022-12-07T07:48:48;98066.47;;;3.20;nan
9187;BME280;7273;48.902;9.410;2022-12-07T07:51:14;98072.19;;;3.24;nan
9187;BME280;7273;48.902;9.410;2022-12-07T07:53:39;98070.88;;;3.26;nan
9187;BME280;7273;48.902;9.410;2022-12-07T07:56:04;98072.75;;;3.26;nan
9187;BME280;7273;48.902;9.410;2022-12-07T07:58:30;98062.41;;;3.29;nan
9187;BME280;7273;48.902;9.410;2022-12-07T08:00:55;98068.34;;;3.31;nan
9187;BME280;7273;48.902;9.410;2022-12-07T08:03:21;98077.19;;;3.32;nan
9187;BME280;7273;48.902;9.410;2022-12-07T08:05:46;98078.00;;;3.32;nan
9187;BME280;7273;48.902;9.410;2022-12-07T08:08:12;98083.69;;;3.36;nan
9187;BME280;7273;48.902;9.410;2022-12-07T08:10:37;98074.88;;;3.35;nan
9187;BME280;7273;48.902;9.410;2022-12-07T08:13:03;98083.22;;;3.27;nan
9187;BME280;7273;48.902;9.410;2022-12-07T08:15:40;98074.03;;;3.35;nan
9187;BME280;7273;48.902;9.410;2022-12-07T08:18:07;98069.66;;;3.40;nan
9187;BME280;7273;48.902;9.410;2022-12-07T08:20:34;98071.84;;;3.43;nan
9187;BME280;7273;48.902;9.410;2022-12-07T08:23:00;98071.16;;;3.48;nan
9187;BME280;7273;48.902;9.410;2022-12-07T08:25:26;98075.00;;;3.52;nan
9187;BME280;7273;48.902;9.410;2022-12-07T08:27:52;98079.88;;;3.55;nan
9187;BME280;7273;48.902;9.410;2022-12-07T08:30:17;98071.63;;;3.56;nan
9187;BME280;7273;48.902;9.410;2022-12-07T08:32:47;98081.41;;;3.62;nan
9187;BME280;7273;48.902;9.410;2022-12-07T08:35:13;98077.66;;;3.63;nan
9187;BME280;7273;48.902;9.410;2022-12-07T08:37:38;98080.47;;;3.68;nan
9187;BME280;7273;48.902;9.410;2022-12-07T08:40:06;98079.19;;;3.71;nan
9187;BME280;7273;48.902;9.410;2022-12-07T08:42:32;98080.34;;;3.75;nan
9187;BME280;7273;48.902;9.410;2022-12-07T08:45:07;98085.56;;;3.81;nan
9187;BME280;7273;48.902;9.410;2022-12-07T08:47:35;98078.03;;;3.78;nan
9187;BME280;7273;48.902;9.410;2022-12-07T08:50:02;98080.94;;;3.88;nan
9187;BME280;7273;48.902;9.410;2022-12-07T08:52:32;98087.47;;;3.92;nan
9187;BME280;7273;48.902;9.410;2022-12-07T08:55:00;98086.41;;;3.82;nan
9187;BME280;7273;48.902;9.410;2022-12-07T08:57:27;98085.34;;;3.94;nan
9187;BME280;7273;48.902;9.410;2022-12-07T08:59:53;98087.56;;;3.97;nan
9187;BME280;7273;48.902;9.410;2022-12-07T09:02:19;98087.69;;;4.02;nan
9187;BME280;7273;48.902;9.410;2022-12-07T09:04:44;98086.16;;;4.06;nan
9187;BME280;7273;48.902;9.410;2022-12-07T09:07:10;98079.41;;;4.04;nan
9187;BME280;7273;48.902;9.410;2022-12-07T09:09:35;98080.69;;;4.13;nan
9187;BME280;7273;48.902;9.410;2022-12-07T09:12:01;98082.09;;;4.16;nan
9187;BME280;7273;48.902;9.410;2022-12-07T09:14:26;98073.56;;;4.19;nan
9187;BME280;7273;48.902;9.410;2022-12-07T09:16:52;98081.97;;;4.22;nan
9187;BME280;7273;48.902;9.410;2022-12-07T09:19:17;98079.53;;;4.21;nan
9187;BME280;7273;48.902;9.410;2022-12-07T09:21:43;98075.31;;;4.25;nan
9187;BME280;7273;48.902;9.410;2022-12-07T09:24:08;98078.31;;;4.28;nan
9187;BME280;7273;48.902;9.410;2022-12-07T09:26:34;98075.19;;;4.31;nan
9187;BME280;7273;48.902;9.410;2022-12-07T09:29:01;98080.53;;;4.31;nan
9187;BME280;7273;48.902;9.410;2022-12-07T09:31:27;98084.13;;;4.37;nan
9187;BME280;7273;48.902;9.410;2022-12-07T09:33:56;98087.38;;;4.39;nan
9187;BME280;7273;48.902;9.410;2022-12-07T09:36:22;98084.00;;;4.43;nan
9187;BME280;7273;48.902;9.410;2022-12-07T09:38:48;98076.56;;;4.45;nan
9187;BME280;7273;48.902;9.410;2022-12-07T09:41:13;98079.31;;;4.50;nan
9187;BME280;7273;48.902;9.410;2022-12-07T09:43:41;98086.31;;;4.51;nan
9187;BME280;7273;48.902;9.410;2022-12-07T09:46:13;98087.69;;;4.54;nan
9187;BME280;7273;48.902;9.410;2022-12-07T09:48:40;98089.09;;;4.56;nan
9187;BME280;7273;48.902;9.410;2022-12-07T09:51:22;98080.56;;;4.59;nan
9187;BME280;7273;48.902;9.410;2022-12-07T09:53:49;98076.03;;;4.60;nan
9187;BME280;7273;48.902;9.410;2022-12-07T09:56:16;98074.16;;;4.60;nan
9187;BME280;7273;48.902;9.410;2022-12-07T09:58:42;98069.13;;;4.64;nan
9187;BME280;7273;48.902;9.410;2022-12-07T10:03:39;98060.88;;;4.65;nan
9187;BME280;7273;48.902;9.410;2022-12-07T10:06:05;98063.06;;;4.68;nan
9187;BME280;7273;48.902;9.410;2022-12-07T10:08:32;98058.53;;;4.69;nan
9187;BME280;7273;48.902;9.410;2022-12-07T10:10:58;98056.66;;;4.69;nan
9187;BME280;7273;48.902;9.410;2022-12-07T10:13:36;98051.56;;;4.68;nan
9187;BME280;7273;48.902;9.410;2022-12-07T10:16:02;98049.13;;;4.66;nan
9187;BME280;7273;48.902;9.410;2022-12-07T10:23:35;98057.16;;;4.66;nan
9187;BME280;7273;48.902;9.410;2022-12-07T10:26:20;98048.88;;;4.68;nan
9187;BME280;7273;48.902;9.410;2022-12-07T10:28:47;98051.81;;;4.66;nan
9187;BME280;7273;48.902;9.410;2022-12-07T10:31:19;98049.81;;;4.62;nan
9187;BME280;7273;48.902;9.410;2022-12-07T10:33:56;98045.63;;;4.66;nan
9187;BME280;7273;48.902;9.410;2022-12-07T10:36:26;98052.34;;;4.68;nan
9187;BME280;7273;48.902;9.410;2022-12-07T10:39:00;98044.66;;;4.72;nan
9187;BME280;7273;48.902;9.410;2022-12-07T10:41:26;98041.97;;;4.72;nan
9187;BME280;7273;48.902;9.410;2022-12-07T10:43:54;98040.47;;;4.76;nan
9187;BME280;7273;48.902;9.410;2022-12-07T10:49:48;98039.16;;;4.78;nan
9187;BME280;7273;48.902;9.410;2022-12-07T10:55:24;98030.97;;;4.85;nan
9187;BME280;7273;48.902;9.410;2022-12-07T11:01:02;98023.16;;;4.83;nan
9187;BME280;7273;48.902;9.410;2022-12-07T11:04:43;98024.00;;;4.84;nan
9187;BME280;7273;48.902;9.410;2022-12-07T11:15:38;98010.53;;;4.95;nan
9187;BME280;7273;48.902;9.410;2022-12-07T11:18:11;98010.28;;;4.97;nan
9187;BME280;7273;48.902;9.410;2022-12-07T11:26:28;98003.69;;;4.88;nan
9187;BME280;7273;48.902;9.410;2022-12-07T11:31:52;98005.56;;;4.87;nan
9187;BME280;7273;48.902;9.410;2022-12-07T11:36:52;97998.41;;;4.93;nan
9187;BME280;7273;48.902;9.410;2022-12-07T11:41:47;97990.38;;;4.93;nan
9187;BME280;7273;48.902;9.410;2022-12-07T11:47:04;97979.13;;;4.91;nan
9187;BME280;7273;48.902;9.410;2022-12-07T11:52:03;97980.41;;;4.88;nan
9187;BME280;7273;48.902;9.410;2022-12-07T11:54:38;97980.72;;;4.92;nan
9187;BME280;7273;48.902;9.410;2022-12-07T11:57:14;97974.78;;;4.90;nan
9187;BME280;7273;48.902;9.410;2022-12-07T11:59:50;97971.38;;;4.94;nan
9187;BME280;7273;48.902;9.410;2022-12-07T12:02:21;97968.78;;;4.99;nan
9187;BME280;7273;48.902;9.410;2022-12-07T12:05:02;97973.28;;;4.94;nan
9187;BME280;7273;48.902;9.410;2022-12-07T12:07:31;97963.69;;;4.98;nan
9187;BME280;7273;48.902;9.410;2022-12-07T12:10:23;97960.19;;;4.97;nan
9187;BME280;7273;48.902;9.410;2022-12-07T12:13:12;97960.19;;;4.97;nan
9187;BME280;7273;48.902;9.410;2022-12-07T12:16:11;97955.78;;;4.91;nan
9187;BME280;7273;48.902;9.410;2022-12-07T12:19:05;97959.06;;;4.93;nan
9187;BME280;7273;48.902;9.410;2022-12-07T12:21:34;97960.13;;;4.92;nan
9187;BME280;7273;48.902;9.410;2022-12-07T12:24:09;97954.44;;;4.89;nan
9187;BME280;7273;48.902;9.410;2022-12-07T12:26:37;97950.19;;;4.93;nan
9187;BME280;7273;48.902;9.410;2022-12-07T12:29:05;97958.88;;;5.00;nan
9187;BME280;7273;48.902;9.410;2022-12-07T12:31:38;97958.06;;;4.99;nan
9187;BME280;7273;48.902;9.410;2022-12-07T12:34:32;97958.41;;;5.03;nan
9187;BME280;7273;48.902;9.410;2022-12-07T12:36:58;97955.97;;;5.01;nan
9187;BME280;7273;48.902;9.410;2022-12-07T12:39:24;97951.91;;;4.99;nan
9187;BME280;7273;48.902;9.410;2022-12-07T12:41:54;97954.84;;;4.97;nan
9187;BME280;7273;48.902;9.410;2022-12-07T12:54:35;97949.06;;;4.89;nan
9187;BME280;7273;48.902;9.410;2022-12-07T12:57:29;97940.88;;;4.95;nan
9187;BME280;7273;48.902;9.410;2022-12-07T12:59:59;97941.91;;;4.94;nan
9187;BME280;7273;48.902;9.410;2022-12-07T13:02:28;97937.94;;;4.97;nan
9187;BME280;7273;48.902;9.410;2022-12-07T13:04:58;97929.34;;;4.95;nan
9187;BME280;7273;48.902;9.410;2022-12-07T13:10:32;97932.50;;;4.92;nan
9187;BME280;7273;48.902;9.410;2022-12-07T13:15:50;97921.53;;;4.93;nan
9187;BME280;7273;48.902;9.410;2022-12-07T13:26:36;97918.03;;;4.93;nan
9187;BME280;7273;48.902;9.410;2022-12-07T13:29:12;97916.19;;;4.93;nan
9187;BME280;7273;48.902;9.410;2022-12-07T13:31:44;97914.00;;;4.90;nan
9187;BME280;7273;48.902;9.410;2022-12-07T13:34:29;97913.41;;;4.88;nan
9187;BME280;7273;48.902;9.410;2022-12-07T13:36:56;97914.81;;;4.91;nan
9187;BME280;7273;48.902;9.410;2022-12-07T13:39:24;97914.56;;;4.92;nan
9187;BME280;7273;48.902;9.410;2022-12-07T13:41:57;97909.47;;;4.91;nan
9187;BME280;7273;48.902;9.410;2022-12-07T13:44:25;97917.41;;;4.86;nan
9187;BME280;7273;48.902;9.410;2022-12-07T13:49:36;97911.56;;;4.89;nan
9187;BME280;7273;48.902;9.410;2022-12-07T13:54:44;97907.81;;;4.90;nan
9187;BME280;7273;48.902;9.410;2022-12-07T13:57:10;97901.66;;;4.89;nan
9187;BME280;7273;48.902;9.410;2022-12-07T13:59:36;97904.56;;;4.88;nan
9187;BME280;7273;48.902;9.410;2022-12-07T14:02:25;97911.06;;;4.92;nan
9187;BME280;7273;48.902;9.410;2022-12-07T14:04:51;97910.81;;;4.93;nan
9187;BME280;7273;48.902;9.410;2022-12-07T14:07:29;97910.81;;;4.93;nan
9187;BME280;7273;48.902;9.410;2022-12-07T14:10:22;97908.97;;;4.94;nan
9187;BME280;7273;48.902;9.410;2022-12-07T14:12:44;97907.97;;;5.00;nan
9187;BME280;7273;48.902;9.410;2022-12-07T14:15:31;97909.03;;;4.99;nan
9187;BME280;7273;48.902;9.410;2022-12-07T14:17:58;97907.97;;;5.00;nan
9187;BME280;7273;48.902;9.410;2022-12-07T14:20:39;97905.88;;;5.02;nan
9187;BME280;7273;48.902;9.410;2022-12-07T14:23:06;97913.66;;;5.03;nan
9187;BME280;7273;48.902;9.410;2022-12-07T14:25:50;97908.81;;;5.00;nan
9187;BME280;7273;48.902;9.410;2022-12-07T14:28:31;97911.16;;;4.97;nan
9187;BME280;7273;48.902;9.410;2022-12-07T14:30:58;97913.59;;;4.98;nan
9187;BME280;7273;48.902;9.410;2022-12-07T14:33:24;97903.19;;;5.02;nan
9187;BME280;7273;48.902;9.410;2022-12-07T14:35:50;97901.81;;;4.99;nan
9187;BME280;7273;48.902;9.410;2022-12-07T14:38:20;97899.94;;;5.00;nan
9187;BME280;7273;48.902;9.410;2022-12-07T14:40:47;97903.44;;;5.00;nan
9187;BME280;7273;48.902;9.410;2022-12-07T14:43:15;97905.06;;;5.01;nan
9187;BME280;7273;48.902;9.410;2022-12-07T14:45:41;97902.63;;;5.00;nan
9187;BME280;7273;48.902;9.410;2022-12-07T14:48:11;97898.34;;;4.99;nan
9187;BME280;7273;48.902;9.410;2022-12-07T14:50:42;97903.69;;;4.99;nan
9187;BME280;7273;48.902;9.410;2022-12-07T14:53:16;97901.00;;;4.99;nan
9187;BME280;7273;48.902;9.410;2022-12-07T14:55:43;97894.75;;;4.93;nan
9187;BME280;7273;48.902;9.410;2022-12-07T14:58:13;97899.53;;;4.91;nan
9187;BME280;7273;48.902;9.410;2022-12-07T15:00:39;97897.94;;;4.90;nan
9187;BME280;7273;48.902;9.410;2022-12-07T15:03:05;97899.44;;;4.86;nan
9187;BME280;7273;48.902;9.410;2022-12-07T15:05:30;97901.88;;;4.88;nan
9187;BME280;7273;48.902;9.410;2022-12-07T15:07:56;97908.47;;;4.80;nan
9187;BME280;7273;48.902;9.410;2022-12-07T15:10:24;97906.38;;;4.82;nan
9187;BME280;7273;48.902;9.410;2022-12-07T15:12:54;97901.25;;;4.81;nan
9187;BME280;7273;48.902;9.410;2022-12-07T15:15:19;97904.19;;;4.79;nan
9187;BME280;7273;48.902;9.410;2022-12-07T15:17:45;97900.69;;;4.79;nan
9187;BME280;7273;48.902;9.410;2022-12-07T15:20:14;97905.78;;;4.80;nan
9187;BME280;7273;48.902;9.410;2022-12-07T15:22:41;97904.19;;;4.79;nan
9187;BME280;7273;48.902;9.410;2022-12-07T15:25:08;97907.56;;;4.75;nan
9187;BME280;7273;48.902;9.410;2022-12-07T15:27:34;97906.78;;;4.74;nan
9187;BME280;7273;48.902;9.410;2022-12-07T15:29:59;97904.88;;;4.75;nan
9187;BME280;7273;48.902;9.410;2022-12-07T15:32:25;97916.91;;;4.72;nan
9187;BME280;7273;48.902;9.410;2022-12-07T15:34:50;97909.94;;;4.71;nan
9187;BME280;7273;48.902;9.410;2022-12-07T15:37:16;97905.28;;;4.67;nan
9187;BME280;7273;48.902;9.410;2022-12-07T15:39:41;97900.75;;;4.67;nan
9187;BME280;7273;48.902;9.410;2022-12-07T15:42:07;97905.53;;;4.65;nan
9187;BME280;7273;48.902;9.410;2022-12-07T15:44:33;97904.19;;;4.63;nan
9187;BME280;7273;48.902;9.410;2022-12-07T15:47:17;97904.41;;;4.61;nan
9187;BME280;7273;48.902;9.410;2022-12-07T15:49:42;97898.47;;;4.59;nan
9187;BME280;7273;48.902;9.410;2022-12-07T15:52:08;97901.16;;;4.59;nan
9187;BME280;7273;48.902;9.410;2022-12-07T15:54:33;97895.22;;;4.57;nan
9187;BME280;7273;48.902;9.410;2022-12-07T15:56:59;97896.88;;;4.58;nan
9187;BME280;7273;48.902;9.410;2022-12-07T15:59:26;97898.06;;;4.51;nan
9187;BME280;7273;48.902;9.410;2022-12-07T16:01:51;97902.59;;;4.50;nan
9187;BME280;7273;48.902;9.410;2022-12-07T16:04:17;97892.88;;;4.44;nan
9187;BME280;7273;48.902;9.410;2022-12-07T16:06:42;97888.34;;;4.45;nan